This is the latest recevied weather packets stored in our database for station/object EA3ANS-1. If no packets are shown the sender has not sent any weather packets the latest 10 day(s).
| Time | Temp. | Humidity | Pressure | Rain* | Wind** | Luminosity | Snow |
|---|---|---|---|---|---|---|---|
| 1787849254 | 31.11° C | - | 1009.6 hPa | 0 mm | 5.36 m/s, 204° | - | - |
| 1787848656 | 31.67° C | - | 1009.3 hPa | 0 mm | 2.24 m/s, 211° | - | - |
| 1787848059 | 31.11° C | - | 1009.2 hPa | 0 mm | 2.68 m/s, 229° | - | - |
| 1787847461 | 32.22° C | - | 1009.1 hPa | 0 mm | 4.02 m/s, 200° | - | - |
| 1787846863 | 31.67° C | - | 1009.1 hPa | 0 mm | 4.92 m/s, 203° | - | - |
| 1787846266 | 32.78° C | - | 1009.3 hPa | 0 mm | 2.24 m/s, 198° | - | - |
| 1787845664 | 32.22° C | - | 1009.4 hPa | 0 mm | 4.47 m/s, 187° | - | - |
| 1787845058 | 33.33° C | - | 1009.4 hPa | 0 mm | 3.58 m/s, 231° | - | - |
| 1787844454 | 32.22° C | - | 1009.3 hPa | 0 mm | 6.26 m/s, 214° | - | - |
| 1787843852 | 32.78° C | - | 1009.3 hPa | 0 mm | 5.36 m/s, 204° | - | - |
| 1787843254 | 33.33° C | - | 1009.2 hPa | 0 mm | 4.47 m/s, 214° | - | - |
| 1787842657 | 33.89° C | - | 1009 hPa | 0 mm | 4.47 m/s, 214° | - | - |
| 1787842058 | 33.89° C | - | 1009.1 hPa | 0 mm | 4.47 m/s, 194° | - | - |
| 1787841459 | 33.89° C | - | 1009.3 hPa | 0 mm | 4.47 m/s, 205° | - | - |
| 1787840847 | 35° C | - | 1009.1 hPa | 0 mm | 2.68 m/s, 184° | - | - |
| 1787840247 | 35° C | - | 1009 hPa | 0 mm | 3.58 m/s, 225° | - | - |
| 1787839650 | 35° C | - | 1009.2 hPa | 0 mm | 4.02 m/s, 181° | - | - |
| 1787839051 | 33.89° C | - | 1009.2 hPa | 0 mm | 4.02 m/s, 210° | - | - |
| 1787838453 | 35° C | - | 1009.2 hPa | 0 mm | 2.68 m/s, 228° | - | - |
| 1787837853 | 35° C | - | 1009.3 hPa | 0 mm | 4.02 m/s, 245° | - | - |
| 1787837297 | 35° C | - | 1009.1 hPa | 0 mm | 3.13 m/s, 170° | - | - |
| 1787837257 | 35° C | - | 1009.1 hPa | 0 mm | 3.13 m/s, 170° | - | - |
| 1787836647 | 35° C | - | 1009.2 hPa | 0 mm | 4.02 m/s, 226° | - | - |
| 1787836050 | 35° C | - | 1009.1 hPa | 0 mm | 4.02 m/s, 200° | - | - |
| 1787835448 | 35° C | - | 1009.2 hPa | 0 mm | 5.36 m/s, 214° | - | - |
* Rain latest hour (hover to see other rain measurements)
** Current wind speed in m/s (hover to see current wind gust speed)